createdAt,value
2022-09-14T00:01:37.182Z,7.20
2022-09-14T00:04:16.860Z,5.43
2022-09-14T00:06:44.734Z,3.65
2022-09-14T00:09:19.347Z,6.03
2022-09-14T00:11:50.230Z,5.90
2022-09-14T00:14:22.611Z,6.28
2022-09-14T00:16:51.988Z,4.45
2022-09-14T00:19:22.463Z,6.50
2022-09-14T00:21:57.110Z,5.75
2022-09-14T00:24:30.810Z,3.25
2022-09-14T00:27:02.584Z,4.60
2022-09-14T00:29:33.390Z,4.65
2022-09-14T00:32:00.891Z,4.30
2022-09-14T00:34:28.964Z,5.43
2022-09-14T00:36:56.315Z,5.05
2022-09-14T00:39:28.147Z,4.50
2022-09-14T00:42:00.097Z,16.88
2022-09-14T00:44:30.145Z,6.68
2022-09-14T00:47:03.115Z,11.77
2022-09-14T00:49:38.279Z,9.32
2022-09-14T00:52:20.149Z,9.15
2022-09-14T00:54:52.342Z,2.35
2022-09-14T00:57:20.668Z,7.25
2022-09-14T00:59:54.760Z,30.90
2022-09-14T01:02:23.738Z,5.28
2022-09-14T01:04:54.173Z,6.68
2022-09-14T01:07:42.798Z,5.25
2022-09-14T01:10:33.576Z,5.97
2022-09-14T01:13:14.610Z,3.78
2022-09-14T01:16:05.990Z,7.30
2022-09-14T01:18:59.130Z,5.80
2022-09-14T01:21:29.123Z,3.47
2022-09-14T01:24:17.145Z,4.40
2022-09-14T01:27:00.138Z,4.85
2022-09-14T01:29:51.908Z,6.75
2022-09-14T01:32:29.405Z,3.83
2022-09-14T01:35:16.243Z,2.63
2022-09-14T01:38:07.698Z,7.60
2022-09-14T01:40:39.129Z,3.22
2022-09-14T01:43:10.822Z,4.85
2022-09-14T01:45:45.654Z,3.33
2022-09-14T01:48:16.372Z,3.28
2022-09-14T01:50:50.025Z,4.93
2022-09-14T01:53:24.831Z,5.75
2022-09-14T01:56:01.120Z,6.00
2022-09-14T01:58:40.775Z,7.45
2022-09-14T02:01:11.614Z,5.75
2022-09-14T02:03:47.120Z,4.25
2022-09-14T02:06:24.172Z,9.10
2022-09-14T02:08:52.515Z,4.28
2022-09-14T02:11:22.081Z,4.55
2022-09-14T02:13:49.518Z,3.63
2022-09-14T02:16:17.009Z,4.43
2022-09-14T02:18:44.865Z,7.05
2022-09-14T02:21:29.439Z,5.07
2022-09-14T02:23:58.143Z,4.78
2022-09-14T02:26:25.782Z,7.82
2022-09-14T02:28:58.814Z,3.28
2022-09-14T02:31:41.881Z,5.47
2022-09-14T02:34:13.153Z,5.90
2022-09-14T02:36:46.128Z,5.28
2022-09-14T02:39:39.250Z,4.13
2022-09-14T02:42:34.134Z,5.18
2022-09-14T02:45:10.088Z,5.15
2022-09-14T02:47:46.598Z,4.00
2022-09-14T02:50:30.228Z,7.07
2022-09-14T02:53:22.119Z,5.43
2022-09-14T02:55:59.344Z,6.75
2022-09-14T02:58:40.641Z,5.25
2022-09-14T03:01:13.663Z,6.07
2022-09-14T03:03:41.327Z,3.60
2022-09-14T03:06:08.810Z,5.82
2022-09-14T03:08:36.611Z,5.45
2022-09-14T03:11:08.753Z,6.90
2022-09-14T03:13:38.911Z,5.65
2022-09-14T03:16:17.359Z,4.95
2022-09-14T03:18:49.377Z,7.72
2022-09-14T03:21:17.885Z,3.67
2022-09-14T03:23:47.992Z,8.30
2022-09-14T03:26:21.247Z,5.70
2022-09-14T03:28:59.120Z,6.95
2022-09-14T03:31:26.978Z,6.18
2022-09-14T03:33:59.706Z,7.97
2022-09-14T03:36:31.884Z,8.30
2022-09-14T03:39:01.870Z,8.20
2022-09-14T03:41:29.274Z,15.88
2022-09-14T03:43:56.576Z,7.20
2022-09-14T03:46:25.362Z,8.00
2022-09-14T03:48:56.496Z,6.47
2022-09-14T03:51:26.009Z,6.28
2022-09-14T03:53:53.313Z,7.90
2022-09-14T03:56:27.370Z,5.80
2022-09-14T03:58:57.350Z,5.28
2022-09-14T04:01:26.714Z,6.82
2022-09-14T04:03:56.433Z,8.40
2022-09-14T04:06:23.722Z,9.23
2022-09-14T04:08:51.500Z,7.13
2022-09-14T04:11:24.382Z,10.82
2022-09-14T04:13:52.935Z,9.02
2022-09-14T04:16:24.896Z,11.60
2022-09-14T04:18:53.086Z,5.45
2022-09-14T04:21:23.664Z,5.65
2022-09-14T04:26:45.850Z,6.78
2022-09-14T04:29:14.609Z,6.85
2022-09-14T04:31:42.079Z,8.60
2022-09-14T04:34:12.645Z,9.95
2022-09-14T04:36:40.320Z,9.40
2022-09-14T04:39:07.539Z,8.50
2022-09-14T04:41:34.802Z,6.95
2022-09-14T04:44:02.301Z,8.32
2022-09-14T04:46:46.061Z,7.63
2022-09-14T04:49:14.860Z,6.90
2022-09-14T04:51:42.323Z,7.85
2022-09-14T04:54:13.563Z,7.40
2022-09-14T04:56:42.043Z,10.38
2022-09-14T04:59:11.856Z,7.80
2022-09-14T05:01:47.691Z,8.23
2022-09-14T05:04:15.122Z,9.13
2022-09-14T05:06:46.372Z,7.78
2022-09-14T05:09:18.970Z,11.00
2022-09-14T05:11:50.408Z,11.40
2022-09-14T05:14:17.680Z,11.07
2022-09-14T05:16:45.210Z,7.65
2022-09-14T05:19:15.709Z,10.73
2022-09-14T05:21:43.722Z,7.70
2022-09-14T05:24:16.415Z,11.15
2022-09-14T05:26:45.786Z,9.38
2022-09-14T05:29:18.556Z,9.23
2022-09-14T05:31:48.500Z,9.73
2022-09-14T05:34:15.986Z,11.38
2022-09-14T05:36:44.118Z,9.43
2022-09-14T05:39:14.223Z,9.38
2022-09-14T05:41:44.204Z,9.38
2022-09-14T05:44:19.122Z,10.93
2022-09-14T05:46:46.403Z,11.23
2022-09-14T05:49:13.637Z,8.63
2022-09-14T05:51:43.330Z,11.38
2022-09-14T05:54:12.058Z,11.43
2022-09-14T05:56:39.303Z,10.05
2022-09-14T05:59:06.567Z,11.23
2022-09-14T06:01:34.048Z,9.82
2022-09-14T06:04:05.500Z,8.48
2022-09-14T06:06:33.738Z,10.50
2022-09-14T06:09:01.340Z,9.63
2022-09-14T06:11:34.049Z,14.25
2022-09-14T06:14:06.061Z,11.95
2022-09-14T06:16:35.790Z,13.93
2022-09-14T06:19:03.656Z,10.25
2022-09-14T06:21:34.581Z,10.25
2022-09-14T06:24:04.404Z,12.95
2022-09-14T06:26:33.989Z,10.55
2022-09-14T06:29:01.255Z,12.48
2022-09-14T06:31:31.184Z,10.77
2022-09-14T06:34:01.045Z,12.13
2022-09-14T06:36:28.913Z,11.75
2022-09-14T06:39:00.131Z,9.40
2022-09-14T06:41:32.802Z,11.23
2022-09-14T06:44:04.669Z,10.38
2022-09-14T06:46:36.618Z,10.57
2022-09-14T06:49:07.222Z,9.45
2022-09-14T06:51:39.984Z,9.50
2022-09-14T06:54:08.656Z,12.82
2022-09-14T06:56:38.292Z,10.23
2022-09-14T06:59:07.516Z,10.50
2022-09-14T07:01:35.608Z,12.98
2022-09-14T07:04:06.176Z,10.70
2022-09-14T07:06:43.716Z,10.82
2022-09-14T07:09:13.469Z,10.68
2022-09-14T07:11:42.066Z,11.63
2022-09-14T07:14:10.154Z,11.13
2022-09-14T07:16:40.809Z,10.77
2022-09-14T07:19:11.565Z,9.63
2022-09-14T07:21:45.042Z,9.40
2022-09-14T07:26:42.337Z,11.38
2022-09-14T07:29:19.012Z,11.25
2022-09-14T07:31:50.993Z,9.80
2022-09-14T07:34:21.775Z,9.05
2022-09-14T07:36:49.137Z,9.15
2022-09-14T07:39:17.736Z,9.73
2022-09-14T07:41:47.550Z,9.63
2022-09-14T07:44:16.580Z,9.90
2022-09-14T07:46:47.297Z,8.93
2022-09-14T07:49:18.479Z,9.18
2022-09-14T07:51:46.113Z,9.50
2022-09-14T07:54:17.565Z,9.32
2022-09-14T07:56:45.703Z,10.43
2022-09-14T07:59:35.084Z,9.70
2022-09-14T08:02:07.887Z,10.27
2022-09-14T08:04:36.252Z,10.18
2022-09-14T08:07:03.797Z,10.80
2022-09-14T08:09:31.329Z,12.50
2022-09-14T08:11:58.544Z,9.43
2022-09-14T08:14:25.918Z,10.52
2022-09-14T08:16:55.775Z,8.73
2022-09-14T08:19:25.511Z,9.80
2022-09-14T08:21:54.904Z,8.35
2022-09-14T08:24:24.960Z,9.98
2022-09-14T08:26:55.836Z,7.95
2022-09-14T08:29:23.074Z,8.98
2022-09-14T08:31:53.138Z,8.68
2022-09-14T08:34:20.737Z,8.93
2022-09-14T08:36:48.910Z,9.18
2022-09-14T08:39:17.308Z,8.35
2022-09-14T08:41:48.919Z,8.40
2022-09-14T08:44:31.289Z,10.55
2022-09-14T08:47:03.169Z,9.65
2022-09-14T08:49:47.026Z,9.27
2022-09-14T08:52:37.227Z,8.73
2022-09-14T08:55:32.279Z,9.48
2022-09-14T08:58:27.312Z,8.93
2022-09-14T09:01:18.578Z,8.15
2022-09-14T09:04:00.307Z,8.18
2022-09-14T09:07:10.283Z,9.57
2022-09-14T09:09:49.967Z,8.52
2022-09-14T09:12:42.612Z,9.88
2022-09-14T09:15:25.519Z,9.20
2022-09-14T09:18:20.799Z,8.53
2022-09-14T09:21:03.137Z,8.48
2022-09-14T09:23:33.212Z,10.40
2022-09-14T09:26:21.785Z,9.80
2022-09-14T09:28:52.256Z,12.27
2022-09-14T09:31:34.728Z,8.85
2022-09-14T09:34:02.771Z,7.38
2022-09-14T09:36:39.292Z,8.82
2022-09-14T09:39:07.502Z,11.75
2022-09-14T09:42:01.898Z,8.55
2022-09-14T09:44:29.768Z,9.43
2022-09-14T09:46:59.693Z,9.35
2022-09-14T09:49:38.183Z,8.50
2022-09-14T09:52:17.297Z,9.45
2022-09-14T09:54:51.397Z,8.45
2022-09-14T09:57:37.262Z,8.18
2022-09-14T10:00:13.904Z,9.80
2022-09-14T10:02:42.208Z,9.02
2022-09-14T10:05:09.431Z,9.02
2022-09-14T10:08:08.068Z,7.78
2022-09-14T10:10:44.995Z,8.15
2022-09-14T10:13:40.957Z,8.57
2022-09-14T10:16:16.803Z,10.30
2022-09-14T10:18:55.371Z,8.30
2022-09-14T10:21:25.721Z,8.50
2022-09-14T10:24:22.578Z,8.73
2022-09-14T10:26:49.794Z,6.95
2022-09-14T10:29:37.511Z,7.55
2022-09-14T10:32:24.106Z,9.20
2022-09-14T10:34:54.019Z,8.70
2022-09-14T10:37:38.081Z,9.43
2022-09-14T10:40:16.893Z,8.07
2022-09-14T10:42:44.841Z,8.00
2022-09-14T10:45:33.456Z,10.23
2022-09-14T10:48:06.545Z,8.98
2022-09-14T10:50:49.594Z,8.45
2022-09-14T10:53:45.204Z,16.20
2022-09-14T10:56:28.989Z,8.13
2022-09-14T11:02:17.618Z,9.52
2022-09-14T11:05:21.072Z,9.30
2022-09-14T11:08:10.958Z,9.87
2022-09-14T11:10:53.100Z,10.85
2022-09-14T11:13:35.533Z,12.07
2022-09-14T11:16:13.168Z,10.43
2022-09-14T11:19:14.542Z,15.70
2022-09-14T11:22:30.314Z,10.38
2022-09-14T11:25:05.622Z,9.88
2022-09-14T11:27:41.002Z,11.98
2022-09-14T11:30:20.742Z,12.95
2022-09-14T11:32:56.014Z,13.52
2022-09-14T11:35:45.133Z,12.70
2022-09-14T11:38:23.838Z,11.70
2022-09-14T11:41:15.134Z,11.57
2022-09-14T11:43:51.437Z,13.10
2022-09-14T11:46:40.819Z,10.93
2022-09-14T11:49:45.642Z,11.23
2022-09-14T11:52:25.725Z,10.65
2022-09-14T11:54:54.141Z,9.60
2022-09-14T11:57:34.328Z,13.95
2022-09-14T12:00:07.534Z,8.77
2022-09-14T12:02:42.987Z,10.82
2022-09-14T12:05:10.744Z,8.52
2022-09-14T12:07:43.182Z,10.00
2022-09-14T12:10:21.930Z,8.73
2022-09-14T12:12:54.902Z,7.65
2022-09-14T12:15:24.958Z,9.95
2022-09-14T12:18:13.344Z,7.60
2022-09-14T12:20:59.388Z,7.72
2022-09-14T12:23:42.562Z,8.85
2022-09-14T12:26:36.323Z,7.60
2022-09-14T12:29:23.468Z,8.20
2022-09-14T12:31:54.282Z,7.70
2022-09-14T12:34:32.236Z,7.50
2022-09-14T12:37:11.265Z,8.25
2022-09-14T12:39:59.644Z,7.50
2022-09-14T12:42:31.457Z,7.30
2022-09-14T12:45:19.042Z,6.55
2022-09-14T12:47:54.635Z,6.43
2022-09-14T12:50:22.905Z,6.20
2022-09-14T12:53:18.431Z,8.30
2022-09-14T12:56:00.320Z,5.72
2022-09-14T12:58:36.577Z,5.07
2022-09-14T13:01:16.719Z,5.43
2022-09-14T13:04:00.062Z,4.82
2022-09-14T13:06:45.599Z,5.80
2022-09-14T13:09:22.725Z,5.15
2022-09-14T13:11:59.029Z,4.63
2022-09-14T13:14:35.429Z,6.28
2022-09-14T13:17:05.433Z,4.50
2022-09-14T13:19:36.642Z,6.40
2022-09-14T13:22:23.503Z,4.22
2022-09-14T13:24:51.778Z,4.13
2022-09-14T13:27:32.231Z,3.65
2022-09-14T13:30:18.450Z,4.80
2022-09-14T13:32:49.360Z,5.60
2022-09-14T13:35:27.161Z,7.15
2022-09-14T13:37:56.734Z,3.53
2022-09-14T13:40:30.619Z,3.78
2022-09-14T13:42:59.683Z,4.07
2022-09-14T13:45:27.317Z,3.05
2022-09-14T13:47:55.097Z,3.55
2022-09-14T13:50:25.444Z,4.20
2022-09-14T13:53:03.161Z,4.07
2022-09-14T13:55:39.768Z,3.50
2022-09-14T13:58:22.608Z,2.60
2022-09-14T14:01:05.197Z,4.57
2022-09-14T14:03:33.632Z,4.28
2022-09-14T14:06:19.344Z,3.03
2022-09-14T14:08:58.364Z,2.35
2022-09-14T14:11:33.416Z,2.92
2022-09-14T14:14:16.971Z,3.92
2022-09-14T14:17:22.018Z,2.15
2022-09-14T14:19:53.998Z,3.70
2022-09-14T14:22:29.995Z,2.53
2022-09-14T14:25:14.524Z,5.95
2022-09-14T14:27:48.275Z,2.97
2022-09-14T14:30:22.502Z,4.85
2022-09-14T14:32:56.027Z,4.55
2022-09-14T14:35:26.987Z,5.68
2022-09-14T14:37:55.027Z,6.53
2022-09-14T14:40:24.509Z,3.83
2022-09-14T14:42:52.710Z,5.53
2022-09-14T14:45:23.847Z,4.90
2022-09-14T14:47:54.585Z,5.57
2022-09-14T14:50:28.170Z,5.82
2022-09-14T14:52:56.205Z,4.78
2022-09-14T14:55:25.734Z,4.00
2022-09-14T14:57:53.724Z,9.73
2022-09-14T15:00:23.613Z,5.78
2022-09-14T15:02:52.047Z,6.93
2022-09-14T15:05:21.860Z,5.70
2022-09-14T15:07:52.555Z,6.78
2022-09-14T15:10:24.412Z,7.40
2022-09-14T15:12:54.657Z,7.78
2022-09-14T15:15:25.355Z,6.90
2022-09-14T15:17:53.769Z,9.23
2022-09-14T15:20:22.098Z,8.90
2022-09-14T15:22:49.814Z,8.05
2022-09-14T15:25:18.377Z,7.78
2022-09-14T15:27:49.850Z,7.32
2022-09-14T15:30:19.355Z,7.30
2022-09-14T15:32:46.607Z,8.40
2022-09-14T15:35:15.014Z,9.02
2022-09-14T15:37:49.584Z,8.88
2022-09-14T15:40:17.163Z,12.00
2022-09-14T15:42:46.920Z,9.90
2022-09-14T15:45:14.780Z,8.35
2022-09-14T15:47:46.956Z,9.15
2022-09-14T15:50:17.029Z,9.30
2022-09-14T15:52:44.239Z,8.30
2022-09-14T15:55:12.601Z,8.73
2022-09-14T15:57:41.201Z,9.05
2022-09-14T16:00:15.415Z,7.07
2022-09-14T16:02:42.689Z,8.40
2022-09-14T16:05:10.301Z,8.70
2022-09-14T16:07:40.156Z,6.28
2022-09-14T16:10:07.964Z,6.38
2022-09-14T16:12:35.207Z,7.47
2022-09-14T16:15:02.480Z,8.98
2022-09-14T16:17:29.722Z,7.90
2022-09-14T16:19:56.979Z,7.70
2022-09-14T16:22:25.271Z,6.90
2022-09-14T16:24:53.049Z,6.07
2022-09-14T16:27:20.358Z,9.00
2022-09-14T16:29:50.514Z,7.95
2022-09-14T16:32:20.265Z,6.72
2022-09-14T16:34:49.768Z,7.50
2022-09-14T16:37:16.973Z,6.30
2022-09-14T16:39:44.739Z,9.45
2022-09-14T16:42:11.952Z,8.73
2022-09-14T16:44:39.621Z,8.27
2022-09-14T16:47:06.944Z,7.68
2022-09-14T16:49:39.278Z,6.47
2022-09-14T16:52:06.668Z,7.78
2022-09-14T16:54:36.248Z,9.82
2022-09-14T16:57:05.713Z,7.93
2022-09-14T16:59:33.428Z,9.65
2022-09-14T17:02:00.772Z,10.90
2022-09-14T17:04:28.581Z,9.43
2022-09-14T17:06:56.867Z,8.80
2022-09-14T17:09:30.679Z,9.68
2022-09-14T17:11:59.107Z,8.57
2022-09-14T17:14:30.498Z,9.23
2022-09-14T17:17:00.546Z,8.38
2022-09-14T17:19:28.400Z,10.07
2022-09-14T17:21:58.550Z,8.88
2022-09-14T17:24:26.472Z,7.45
2022-09-14T17:26:54.129Z,9.68
2022-09-14T17:29:22.009Z,9.98
2022-09-14T17:31:51.795Z,9.10
2022-09-14T17:34:19.556Z,15.65
2022-09-14T17:36:47.337Z,7.70
2022-09-14T17:39:15.682Z,7.10
2022-09-14T17:41:45.561Z,8.63
2022-09-14T17:44:14.852Z,9.82
2022-09-14T17:46:51.977Z,9.25
2022-09-14T17:49:22.343Z,7.78
2022-09-14T17:51:50.957Z,8.73
2022-09-14T17:54:19.975Z,9.57
2022-09-14T17:56:47.282Z,8.57
2022-09-14T17:59:19.919Z,7.35
2022-09-14T18:01:50.584Z,8.70
2022-09-14T18:04:18.381Z,9.43
2022-09-14T18:06:49.885Z,10.48
2022-09-14T18:09:25.339Z,9.65
2022-09-14T18:11:56.118Z,9.50
2022-09-14T18:14:24.019Z,10.75
2022-09-14T18:16:53.355Z,10.82
2022-09-14T18:19:20.791Z,10.77
2022-09-14T18:21:52.310Z,11.38
2022-09-14T18:24:20.105Z,10.93
2022-09-14T18:26:48.696Z,11.13
2022-09-14T18:29:21.187Z,14.27
2022-09-14T18:31:49.680Z,11.87
2022-09-14T18:34:20.759Z,13.05
2022-09-14T18:36:50.190Z,15.35
2022-09-14T18:39:17.372Z,16.55
2022-09-14T18:41:48.058Z,15.23
2022-09-14T18:44:15.522Z,14.40
2022-09-14T18:46:44.389Z,12.68
2022-09-14T18:49:14.090Z,14.77
2022-09-14T18:51:43.940Z,13.15
2022-09-14T18:54:13.004Z,12.75
2022-09-14T18:56:40.445Z,13.85
2022-09-14T18:59:11.857Z,11.85
2022-09-14T19:01:41.063Z,11.95
2022-09-14T19:04:11.136Z,13.15
2022-09-14T19:06:39.352Z,11.68
2022-09-14T19:09:07.338Z,11.05
2022-09-14T19:11:37.513Z,11.77
2022-09-14T19:14:12.660Z,12.88
2022-09-14T19:16:44.242Z,12.77
2022-09-14T19:19:14.943Z,12.15
2022-09-14T19:21:45.574Z,13.00
2022-09-14T19:24:15.757Z,10.35
2022-09-14T19:26:46.473Z,14.15
2022-09-14T19:29:20.529Z,13.77
2022-09-14T19:31:51.819Z,12.40
2022-09-14T19:34:25.740Z,12.90
2022-09-14T19:36:54.556Z,9.43
2022-09-14T19:39:25.413Z,12.43
2022-09-14T19:41:55.275Z,10.73
2022-09-14T19:44:23.250Z,11.07
2022-09-14T19:46:51.073Z,11.27
2022-09-14T19:49:23.433Z,10.05
2022-09-14T19:51:53.901Z,13.15
2022-09-14T19:54:21.374Z,11.23
2022-09-14T19:56:51.344Z,10.10
2022-09-14T19:59:18.749Z,11.13
2022-09-14T20:01:46.526Z,15.02
2022-09-14T20:04:18.379Z,12.90
2022-09-14T20:06:47.835Z,10.80
2022-09-14T20:09:19.291Z,11.85
2022-09-14T20:11:48.588Z,10.35
2022-09-14T20:14:18.405Z,11.23
2022-09-14T20:16:49.964Z,11.55
2022-09-14T20:19:22.146Z,12.07
2022-09-14T20:21:50.750Z,10.57
2022-09-14T20:24:28.863Z,10.25
2022-09-14T20:26:58.899Z,10.02
2022-09-14T20:29:30.101Z,10.50
2022-09-14T20:31:59.042Z,11.80
2022-09-14T20:34:26.591Z,10.30
2022-09-14T20:36:55.146Z,10.25
2022-09-14T20:39:24.242Z,9.68
2022-09-14T20:41:51.457Z,10.35
2022-09-14T20:44:22.209Z,9.40
2022-09-14T20:46:51.211Z,13.32
2022-09-14T20:49:21.467Z,13.52
2022-09-14T20:51:49.523Z,12.55
2022-09-14T20:54:17.988Z,12.35
2022-09-14T20:57:06.033Z,11.82
2022-09-14T20:59:33.279Z,11.38
2022-09-14T21:02:05.160Z,12.63
2022-09-14T21:04:34.896Z,10.82
2022-09-14T21:07:02.466Z,10.90
2022-09-14T21:09:29.739Z,13.07
2022-09-14T21:12:01.823Z,14.48
2022-09-14T21:14:29.835Z,13.65
2022-09-14T21:17:00.087Z,11.57
2022-09-14T21:19:32.468Z,11.30
2022-09-14T21:22:00.253Z,16.60
2022-09-14T21:24:31.101Z,15.48
2022-09-14T21:27:01.449Z,18.85
2022-09-14T21:29:31.181Z,13.75
2022-09-14T21:31:58.934Z,13.30
2022-09-14T21:34:29.041Z,15.07
2022-09-14T21:36:56.512Z,15.73
2022-09-14T21:39:27.015Z,14.27
2022-09-14T21:41:59.113Z,14.07
2022-09-14T21:44:31.275Z,14.00
2022-09-14T21:46:59.211Z,17.58
2022-09-14T21:49:28.914Z,12.55
2022-09-14T21:51:56.169Z,13.77
2022-09-14T21:54:23.780Z,15.93
2022-09-14T21:56:52.177Z,15.52
2022-09-14T21:59:21.134Z,16.55
2022-09-14T22:01:49.374Z,17.17
2022-09-14T22:04:24.324Z,16.40
2022-09-14T22:06:52.663Z,15.18
2022-09-14T22:09:29.269Z,15.30
2022-09-14T22:11:57.373Z,18.55
2022-09-14T22:14:29.960Z,15.98
2022-09-14T22:17:00.325Z,18.47
2022-09-14T22:19:30.319Z,13.07
2022-09-14T22:21:57.897Z,13.82
2022-09-14T22:24:36.415Z,16.65
2022-09-14T22:27:09.893Z,22.83
2022-09-14T22:29:39.210Z,16.00
2022-09-14T22:32:11.885Z,15.35
2022-09-14T22:34:44.629Z,15.18
2022-09-14T22:37:15.997Z,15.02
2022-09-14T22:39:43.392Z,14.93
2022-09-14T22:42:13.577Z,13.82
2022-09-14T22:44:46.496Z,15.40
2022-09-14T22:47:14.621Z,17.33
2022-09-14T22:49:41.800Z,11.32
2022-09-14T22:52:12.049Z,16.30
2022-09-14T22:54:39.306Z,13.48
2022-09-14T22:57:06.586Z,13.10
2022-09-14T22:59:34.735Z,17.50
2022-09-14T23:02:02.440Z,14.80
2022-09-14T23:04:32.699Z,10.65
2022-09-14T23:07:00.323Z,10.93
2022-09-14T23:09:30.591Z,11.40
2022-09-14T23:11:58.323Z,13.98
2022-09-14T23:14:26.027Z,15.75
2022-09-14T23:16:55.522Z,13.48
2022-09-14T23:19:23.253Z,15.80
2022-09-14T23:21:51.081Z,11.88
2022-09-14T23:24:18.331Z,12.88
2022-09-14T23:26:45.564Z,12.82
2022-09-14T23:29:17.368Z,14.05
2022-09-14T23:31:47.322Z,12.07
2022-09-14T23:34:15.066Z,13.43
2022-09-14T23:36:45.002Z,12.10
2022-09-14T23:39:12.696Z,12.82
2022-09-14T23:41:42.094Z,16.50
2022-09-14T23:44:12.800Z,18.45
2022-09-14T23:46:40.287Z,16.02
2022-09-14T23:49:14.157Z,17.45
2022-09-14T23:51:42.348Z,15.85
2022-09-14T23:54:11.831Z,16.98
2022-09-14T23:56:39.214Z,17.45
2022-09-14T23:59:11.759Z,16.23
